createdAt,value
2023-10-30T00:00:55.502Z,498.3
2023-10-30T00:01:57.260Z,498.6
2023-10-30T00:02:59.652Z,498.2
2023-10-30T00:04:02.011Z,498.5
2023-10-30T00:05:03.795Z,498.5
2023-10-30T00:06:05.961Z,498.4
2023-10-30T00:07:07.755Z,498.5
2023-10-30T00:08:09.472Z,498.7
2023-10-30T00:09:11.620Z,498.6
2023-10-30T00:10:13.405Z,498.6
2023-10-30T00:11:15.174Z,498.6
2023-10-30T00:12:17.035Z,498.5
2023-10-30T00:13:18.789Z,498.8
2023-10-30T00:14:20.498Z,498.7
2023-10-30T00:15:22.458Z,498.6
2023-10-30T00:16:24.686Z,498.8
2023-10-30T00:17:26.407Z,498.9
2023-10-30T00:18:28.336Z,499
2023-10-30T00:19:30.069Z,499.3
2023-10-30T00:20:31.830Z,499.1
2023-10-30T00:21:33.853Z,499.1
2023-10-30T00:22:35.601Z,499.1
2023-10-30T00:23:37.303Z,499.4
2023-10-30T00:24:39.311Z,499.2
2023-10-30T00:25:41.069Z,499.5
2023-10-30T00:26:42.772Z,499.6
2023-10-30T00:27:44.471Z,499.8
2023-10-30T00:28:46.243Z,500
2023-10-30T00:29:49.826Z,500.1
2023-10-30T00:30:52.042Z,499.5
2023-10-30T00:31:53.850Z,499.8
2023-10-30T00:32:55.926Z,499.6
2023-10-30T00:33:57.695Z,499.4
2023-10-30T00:34:59.437Z,499.7
2023-10-30T00:36:01.149Z,499.4
2023-10-30T00:37:02.859Z,499.4
2023-10-30T00:38:04.659Z,499.3
2023-10-30T00:39:06.461Z,499.3
2023-10-30T00:40:08.192Z,499.6
2023-10-30T00:41:09.891Z,499.4
2023-10-30T00:42:11.856Z,499.8
2023-10-30T00:43:13.743Z,499.8
2023-10-30T00:44:15.428Z,500
2023-10-30T00:45:17.410Z,500.3
2023-10-30T00:46:19.427Z,500
2023-10-30T00:47:21.126Z,500.2
2023-10-30T00:48:22.975Z,500.3
2023-10-30T00:49:24.772Z,500.6
2023-10-30T00:50:26.509Z,500.4
2023-10-30T00:51:28.342Z,500.2
2023-10-30T00:52:30.172Z,500.2
2023-10-30T00:53:31.968Z,500.2
2023-10-30T00:54:33.937Z,500.1
2023-10-30T00:55:35.801Z,500.1
2023-10-30T00:56:37.509Z,499.9
2023-10-30T00:57:39.505Z,499.8
2023-10-30T00:58:41.243Z,500.3
2023-10-30T00:59:42.952Z,500
2023-10-30T01:00:45.062Z,499.8
2023-10-30T01:01:47.236Z,499.5
2023-10-30T01:02:49.879Z,499.7
2023-10-30T01:03:53.008Z,499.6
2023-10-30T01:04:56.733Z,499.6
2023-10-30T01:05:58.861Z,499.2
2023-10-30T01:07:00.592Z,499.2
2023-10-30T01:08:02.341Z,499.2
2023-10-30T01:09:04.573Z,499.2
2023-10-30T01:10:06.310Z,499.6
2023-10-30T01:11:08.002Z,499.4
2023-10-30T01:12:09.816Z,499.2
2023-10-30T01:13:11.696Z,499.7
2023-10-30T01:14:13.402Z,499.9
2023-10-30T01:15:15.253Z,499.4
2023-10-30T01:16:17.310Z,499.3
2023-10-30T01:17:19.122Z,499.5
2023-10-30T01:18:21.083Z,499.5
2023-10-30T01:19:22.876Z,499.5
2023-10-30T01:20:24.610Z,499.4
2023-10-30T01:21:26.533Z,499.7
2023-10-30T01:22:28.245Z,499.8
2023-10-30T01:23:29.950Z,499.7
2023-10-30T01:24:32.408Z,499.9
2023-10-30T01:25:34.165Z,499.8
2023-10-30T01:26:36.248Z,499.5
2023-10-30T01:27:38.289Z,499.4
2023-10-30T01:28:40.068Z,499
2023-10-30T01:29:41.816Z,499.2
2023-10-30T01:30:43.996Z,499.2
2023-10-30T01:31:45.751Z,499
2023-10-30T01:32:47.935Z,498.9
2023-10-30T01:33:50.486Z,499.4
2023-10-30T01:34:52.479Z,499.5
2023-10-30T01:35:54.223Z,499.5
2023-10-30T01:36:55.927Z,499
2023-10-30T01:37:57.661Z,499.4
2023-10-30T01:38:59.404Z,499.5
2023-10-30T01:40:01.355Z,499.6
2023-10-30T01:41:03.056Z,499.8
2023-10-30T01:42:04.793Z,499.7
2023-10-30T01:43:06.492Z,499.9
2023-10-30T01:44:08.184Z,500
2023-10-30T01:45:10.034Z,500.1
2023-10-30T01:46:11.922Z,499.3
2023-10-30T01:47:13.648Z,499.2
2023-10-30T01:48:15.856Z,499.5
2023-10-30T01:49:17.761Z,499.1
2023-10-30T01:50:19.468Z,499.2
2023-10-30T01:51:21.425Z,499.3
2023-10-30T01:52:23.142Z,499.1
2023-10-30T01:53:24.839Z,499.2
2023-10-30T01:54:26.711Z,499
2023-10-30T01:55:28.460Z,499.2
2023-10-30T01:56:30.146Z,499.2
2023-10-30T01:57:32.151Z,499.2
2023-10-30T01:58:33.963Z,499
2023-10-30T01:59:35.767Z,499.3
2023-10-30T02:00:37.902Z,499.1
2023-10-30T02:01:39.734Z,499
2023-10-30T02:02:42.157Z,498.9
2023-10-30T02:03:44.728Z,499
2023-10-30T02:04:46.613Z,499
2023-10-30T02:05:48.374Z,498.8
2023-10-30T02:06:50.132Z,498.7
2023-10-30T02:07:51.849Z,498.4
2023-10-30T02:08:53.820Z,498.6
2023-10-30T02:09:55.549Z,498.7
2023-10-30T02:10:57.331Z,498.7
2023-10-30T02:11:59.037Z,498.6
2023-10-30T02:13:00.991Z,498.6
2023-10-30T02:14:02.744Z,498.4
2023-10-30T02:15:04.454Z,498.6
2023-10-30T02:16:06.438Z,498.2
2023-10-30T02:17:08.312Z,498.5
2023-10-30T02:18:10.103Z,498.5
2023-10-30T02:19:11.918Z,498.5
2023-10-30T02:20:13.774Z,498.5
2023-10-30T02:21:15.692Z,498.5
2023-10-30T02:22:17.558Z,498.7
2023-10-30T02:23:19.250Z,498.6
2023-10-30T02:24:21.149Z,498.8
2023-10-30T02:25:22.901Z,498.6
2023-10-30T02:26:24.688Z,499
2023-10-30T02:27:26.688Z,498.9
2023-10-30T02:28:31.240Z,498.8
2023-10-30T02:29:32.956Z,498.9
2023-10-30T02:30:34.996Z,498.9
2023-10-30T02:31:36.897Z,499
2023-10-30T02:32:38.818Z,499
2023-10-30T02:33:43.145Z,498.8
2023-10-30T02:34:44.964Z,499
2023-10-30T02:35:46.671Z,498.6
2023-10-30T02:36:48.393Z,498.6
2023-10-30T02:37:50.157Z,499
2023-10-30T02:38:51.906Z,498.6
2023-10-30T02:39:53.765Z,498.8
2023-10-30T02:40:55.468Z,499
2023-10-30T02:41:57.216Z,498.8
2023-10-30T02:42:58.941Z,499.1
2023-10-30T02:44:00.708Z,498.7
2023-10-30T02:45:02.463Z,498.8
2023-10-30T02:46:04.290Z,498.9
2023-10-30T02:47:06.042Z,498.9
2023-10-30T02:48:08.224Z,498.9
2023-10-30T02:49:10.012Z,498.6
2023-10-30T02:50:11.798Z,499.1
2023-10-30T02:51:13.796Z,499
2023-10-30T02:52:15.508Z,499.5
2023-10-30T02:53:17.298Z,499
2023-10-30T02:54:19.146Z,498.9
2023-10-30T02:55:20.937Z,498.9
2023-10-30T02:56:22.659Z,498.7
2023-10-30T02:57:24.763Z,498.8
2023-10-30T02:58:26.617Z,498.9
2023-10-30T02:59:28.353Z,498.9
2023-10-30T03:00:30.295Z,499.1
2023-10-30T03:01:32.110Z,499
2023-10-30T03:02:34.469Z,498.8
2023-10-30T03:03:37.278Z,498.9
2023-10-30T03:04:39.919Z,499
2023-10-30T03:05:41.859Z,498.6
2023-10-30T03:06:43.687Z,498.8
2023-10-30T03:07:45.582Z,498.7
2023-10-30T03:08:47.300Z,498.7
2023-10-30T03:09:50.080Z,498.5
2023-10-30T03:10:51.985Z,498.6
2023-10-30T03:11:53.679Z,498.5
2023-10-30T03:12:55.418Z,498.4
2023-10-30T03:13:57.138Z,498.6
2023-10-30T03:14:59.194Z,498.6
2023-10-30T03:16:01.570Z,498.3
2023-10-30T03:17:03.400Z,498.4
2023-10-30T03:18:05.573Z,498.2
2023-10-30T03:19:07.281Z,498.4
2023-10-30T03:20:09.083Z,498
2023-10-30T03:21:10.969Z,498.1
2023-10-30T03:22:12.690Z,497.8
2023-10-30T03:23:14.430Z,497.9
2023-10-30T03:24:16.237Z,497.3
2023-10-30T03:25:18.480Z,497.6
2023-10-30T03:26:20.406Z,497.7
2023-10-30T03:27:22.296Z,497.3
2023-10-30T03:28:24.104Z,497.3
2023-10-30T03:29:25.840Z,497.6
2023-10-30T03:30:27.691Z,497.4
2023-10-30T03:31:29.491Z,497.4
2023-10-30T03:32:31.539Z,497.3
2023-10-30T03:33:33.716Z,497.2
2023-10-30T03:34:35.663Z,496.6
2023-10-30T03:35:37.506Z,496.7
2023-10-30T03:36:39.505Z,496.7
2023-10-30T03:37:41.293Z,496.9
2023-10-30T03:38:43.101Z,497.2
2023-10-30T03:39:45.321Z,497.1
2023-10-30T03:40:47.075Z,496.9
2023-10-30T03:41:48.838Z,497.2
2023-10-30T03:42:50.555Z,497
2023-10-30T03:43:52.325Z,496.8
2023-10-30T03:44:54.059Z,497.1
2023-10-30T03:45:56.348Z,497.1
2023-10-30T03:46:58.227Z,497.2
2023-10-30T03:48:00.108Z,496.9
2023-10-30T03:49:02.009Z,497.1
2023-10-30T03:50:03.740Z,497.1
2023-10-30T03:51:05.429Z,497.1
2023-10-30T03:52:07.181Z,497
2023-10-30T03:53:08.890Z,497
2023-10-30T03:54:10.725Z,497.2
2023-10-30T03:55:12.503Z,497.1
2023-10-30T03:56:14.192Z,496.8
2023-10-30T03:57:16.254Z,497.1
2023-10-30T03:58:17.955Z,497.5
2023-10-30T03:59:19.691Z,497.2
2023-10-30T04:00:21.538Z,497.5
2023-10-30T04:01:25.368Z,497.6
2023-10-30T04:02:27.451Z,497.8
2023-10-30T04:03:29.588Z,497.8
2023-10-30T04:04:31.779Z,497.6
2023-10-30T04:05:36.231Z,497.7
2023-10-30T04:06:38.546Z,497.7
2023-10-30T04:07:40.363Z,497.6
2023-10-30T04:08:42.119Z,497.4
2023-10-30T04:09:43.995Z,497.6
2023-10-30T04:10:45.762Z,497.4
2023-10-30T04:11:47.524Z,497.6
2023-10-30T04:12:49.640Z,497.7
2023-10-30T04:13:51.344Z,497.4
2023-10-30T04:14:53.107Z,497.8
2023-10-30T04:15:54.994Z,497.7
2023-10-30T04:16:56.764Z,497.6
2023-10-30T04:17:58.755Z,497.8
2023-10-30T04:19:00.474Z,497.3
2023-10-30T04:20:02.214Z,497.5
2023-10-30T04:21:04.141Z,497.7
2023-10-30T04:22:06.276Z,497.3
2023-10-30T04:23:08.044Z,497.5
2023-10-30T04:24:09.860Z,497.6
2023-10-30T04:25:11.578Z,497.9
2023-10-30T04:26:13.304Z,498
2023-10-30T04:27:15.095Z,497.9
2023-10-30T04:28:16.804Z,497.8
2023-10-30T04:29:18.564Z,497.9
2023-10-30T04:30:20.412Z,497.8
2023-10-30T04:31:22.515Z,497.9
2023-10-30T04:32:24.236Z,498.2
2023-10-30T04:33:26.218Z,498.1
2023-10-30T04:34:27.939Z,497.9
2023-10-30T04:35:29.761Z,497.6
2023-10-30T04:36:31.675Z,497.7
2023-10-30T04:37:33.424Z,497.6
2023-10-30T04:38:35.210Z,497.7
2023-10-30T04:39:37.234Z,497.8
2023-10-30T04:40:38.958Z,497.8
2023-10-30T04:41:40.710Z,497.7
2023-10-30T04:42:42.696Z,497.5
2023-10-30T04:43:44.821Z,497.8
2023-10-30T04:44:46.648Z,498
2023-10-30T04:45:48.759Z,497.9
2023-10-30T04:46:50.580Z,497.8
2023-10-30T04:47:52.751Z,497.7
2023-10-30T04:48:54.486Z,497.7
2023-10-30T04:49:56.273Z,497.6
2023-10-30T04:50:58.361Z,497.5
2023-10-30T04:52:00.067Z,497.4
2023-10-30T04:53:01.764Z,497.8
2023-10-30T04:54:03.573Z,497.3
2023-10-30T04:55:05.270Z,497.3
2023-10-30T04:56:07.240Z,497.4
2023-10-30T04:57:08.989Z,497.1
2023-10-30T04:58:10.698Z,496.8
2023-10-30T04:59:12.375Z,497.3
2023-10-30T05:00:14.248Z,496.8
2023-10-30T05:01:16.293Z,496.9
2023-10-30T05:02:18.087Z,496.7
2023-10-30T05:03:19.935Z,496.8
2023-10-30T05:04:21.801Z,496.8
2023-10-30T05:05:23.520Z,497.3
2023-10-30T05:06:25.459Z,496.9
2023-10-30T05:07:27.423Z,496.9
2023-10-30T05:08:29.175Z,497.1
2023-10-30T05:09:31.189Z,497
2023-10-30T05:10:32.927Z,497.1
2023-10-30T05:11:34.643Z,496.8
2023-10-30T05:12:36.600Z,496.7
2023-10-30T05:13:38.327Z,496.5
2023-10-30T05:14:40.070Z,496.3
2023-10-30T05:15:42.080Z,496.3
2023-10-30T05:16:44.869Z,496.3
2023-10-30T05:17:46.927Z,495.7
2023-10-30T05:18:48.914Z,495.8
2023-10-30T05:19:51.482Z,495.4
2023-10-30T05:20:53.222Z,495.1
2023-10-30T05:21:55.317Z,495.2
2023-10-30T05:22:57.172Z,495.2
2023-10-30T05:23:58.894Z,495
2023-10-30T05:25:00.665Z,494.8
2023-10-30T05:26:02.477Z,494.7
2023-10-30T05:27:04.223Z,494.7
2023-10-30T05:28:06.513Z,494.8
2023-10-30T05:29:08.397Z,494.8
2023-10-30T05:30:10.311Z,494.5
2023-10-30T05:31:12.769Z,494.7
2023-10-30T05:32:14.699Z,494.4
2023-10-30T05:33:16.505Z,493.8
2023-10-30T05:34:18.219Z,493.6
2023-10-30T05:35:20.705Z,493.6
2023-10-30T05:36:22.787Z,493.4
2023-10-30T05:37:24.624Z,493.9
2023-10-30T05:38:26.792Z,493.5
2023-10-30T05:39:28.867Z,493.3
2023-10-30T05:40:30.654Z,493.4
2023-10-30T05:41:32.374Z,493.2
2023-10-30T05:42:34.387Z,492.8
2023-10-30T05:43:36.133Z,492.9
2023-10-30T05:44:37.863Z,492.5
2023-10-30T05:45:39.929Z,492.8
2023-10-30T05:46:41.889Z,492.8
2023-10-30T05:47:44.145Z,492.7
2023-10-30T05:48:46.211Z,492.4
2023-10-30T05:49:49.344Z,492.8
2023-10-30T05:50:51.290Z,492.8
2023-10-30T05:51:52.989Z,492.8
2023-10-30T05:52:54.725Z,492.3
2023-10-30T05:53:56.423Z,492.4
2023-10-30T05:54:58.125Z,492.7
2023-10-30T05:55:59.877Z,492.6
2023-10-30T05:57:01.575Z,492.7
2023-10-30T05:58:03.324Z,492.7
2023-10-30T05:59:05.035Z,492.4
2023-10-30T06:00:06.788Z,492.6
2023-10-30T06:01:08.658Z,492.2
2023-10-30T06:02:10.361Z,492.3
2023-10-30T06:03:12.105Z,492.3
2023-10-30T06:04:14.489Z,492.2
2023-10-30T06:05:17.555Z,492
2023-10-30T06:06:19.518Z,492.2
2023-10-30T06:07:21.357Z,492.2
2023-10-30T06:08:23.105Z,492
2023-10-30T06:09:24.956Z,492.3
2023-10-30T06:10:26.674Z,492.3
2023-10-30T06:11:28.448Z,492.4
2023-10-30T06:12:30.292Z,492.3
2023-10-30T06:13:32.137Z,491.8
2023-10-30T06:14:33.854Z,491.9
2023-10-30T06:15:35.837Z,491.3
2023-10-30T06:16:37.757Z,491.4
2023-10-30T06:17:39.664Z,491.2
2023-10-30T06:18:41.710Z,491.4
2023-10-30T06:19:43.491Z,491.2
2023-10-30T06:20:45.258Z,491
2023-10-30T06:21:47.350Z,490.9
2023-10-30T06:22:49.061Z,490.9
2023-10-30T06:23:50.836Z,490.9
2023-10-30T06:24:52.973Z,490.7
2023-10-30T06:25:54.716Z,490.5
2023-10-30T06:26:57.632Z,490.7
2023-10-30T06:27:59.364Z,490.8
2023-10-30T06:29:01.072Z,490.8
2023-10-30T06:30:02.841Z,490.9
2023-10-30T06:31:04.600Z,490.8
2023-10-30T06:32:06.610Z,491.2
2023-10-30T06:33:08.928Z,490.9
2023-10-30T06:34:11.264Z,491
2023-10-30T06:35:13.023Z,490.7
2023-10-30T06:36:18.274Z,490.7
2023-10-30T06:37:20.364Z,490.6
2023-10-30T06:38:22.155Z,491
2023-10-30T06:39:24.000Z,490.6
2023-10-30T06:40:25.719Z,490.5
2023-10-30T06:41:27.448Z,490.8
2023-10-30T06:42:29.423Z,490.7
2023-10-30T06:43:31.209Z,490.8
2023-10-30T06:44:32.925Z,490.7
2023-10-30T06:45:34.921Z,490.8
2023-10-30T06:46:37.158Z,490.3
2023-10-30T06:47:39.328Z,490.2
2023-10-30T06:48:41.517Z,490.4
2023-10-30T06:49:43.430Z,490.3
2023-10-30T06:50:45.141Z,490.4
2023-10-30T06:51:46.969Z,490.1
2023-10-30T06:52:48.777Z,490.2
2023-10-30T06:53:50.730Z,490.2
2023-10-30T06:54:52.690Z,490.3
2023-10-30T06:55:54.469Z,490.4
2023-10-30T06:56:56.181Z,490.5
2023-10-30T06:57:58.016Z,490.6
2023-10-30T06:58:59.688Z,490.5
2023-10-30T07:00:01.406Z,490.6
2023-10-30T07:01:03.775Z,490.5
2023-10-30T07:02:05.721Z,491
2023-10-30T07:03:07.757Z,490.7
2023-10-30T07:04:10.170Z,491.1
2023-10-30T07:05:11.974Z,490.9
2023-10-30T07:06:14.043Z,491
2023-10-30T07:07:15.948Z,491.2
2023-10-30T07:08:17.663Z,491.1
2023-10-30T07:09:19.625Z,491.3
2023-10-30T07:10:21.317Z,491.2
2023-10-30T07:11:23.014Z,491.2
2023-10-30T07:12:24.835Z,491.4
2023-10-30T07:13:26.622Z,491.2
2023-10-30T07:14:28.325Z,491.2
2023-10-30T07:15:30.412Z,491.5
2023-10-30T07:16:32.404Z,491.6
2023-10-30T07:17:34.255Z,491.4
2023-10-30T07:18:36.141Z,491.6
2023-10-30T07:19:37.869Z,491.8
2023-10-30T07:20:39.648Z,491.9
2023-10-30T07:21:47.222Z,491.9
2023-10-30T07:22:48.946Z,491.8
2023-10-30T07:23:50.709Z,491.8
2023-10-30T07:24:52.680Z,492
2023-10-30T07:25:54.426Z,491.8
2023-10-30T07:26:56.162Z,491.8
2023-10-30T07:27:58.250Z,491.9
2023-10-30T07:29:00.065Z,491.9
2023-10-30T07:30:01.942Z,491.9
2023-10-30T07:31:05.119Z,491.6
2023-10-30T07:32:06.997Z,491.7
2023-10-30T07:33:10.060Z,491.6
2023-10-30T07:34:11.841Z,491.7
2023-10-30T07:35:13.604Z,491.7
2023-10-30T07:36:15.587Z,491.4
2023-10-30T07:37:17.305Z,491.5
2023-10-30T07:38:19.058Z,491.3
2023-10-30T07:39:20.891Z,491.4
2023-10-30T07:40:22.682Z,491.5
2023-10-30T07:41:24.439Z,491.5
2023-10-30T07:42:26.297Z,491.6
2023-10-30T07:43:28.027Z,491.5
2023-10-30T07:44:29.760Z,491.5
2023-10-30T07:45:32.213Z,491.5
2023-10-30T07:46:34.634Z,491.3
2023-10-30T07:47:45.723Z,491.6
2023-10-30T07:48:47.889Z,491.8
2023-10-30T07:49:49.655Z,491.7
2023-10-30T07:50:51.338Z,491.4
2023-10-30T07:51:53.399Z,491.5
2023-10-30T07:52:55.232Z,491.3
2023-10-30T07:53:56.956Z,491.8
2023-10-30T07:54:58.937Z,491.9
2023-10-30T07:56:00.738Z,491.8
2023-10-30T07:57:02.532Z,491.9
2023-10-30T07:58:04.265Z,491.9
2023-10-30T07:59:06.058Z,491.7
2023-10-30T08:00:07.904Z,491.6
2023-10-30T08:01:10.191Z,491.8
2023-10-30T08:02:12.535Z,491.8
2023-10-30T08:03:15.026Z,491.9
2023-10-30T08:04:17.657Z,491.9
2023-10-30T08:05:19.515Z,491.7
2023-10-30T08:06:21.388Z,492.2
2023-10-30T08:07:23.200Z,491.8
2023-10-30T08:08:24.953Z,491.7
2023-10-30T08:09:26.898Z,491.8
2023-10-30T08:10:28.870Z,492.3
2023-10-30T08:11:30.699Z,492.2
2023-10-30T08:12:32.693Z,492.3
2023-10-30T08:13:34.540Z,492.5
2023-10-30T08:14:38.293Z,492.4
2023-10-30T08:15:40.379Z,492.5
2023-10-30T08:16:42.593Z,492.4
2023-10-30T08:17:44.638Z,492.8
2023-10-30T08:18:46.831Z,492.6
2023-10-30T08:19:48.757Z,492.5
2023-10-30T08:20:50.703Z,492.8
2023-10-30T08:21:53.314Z,492.8
2023-10-30T08:22:55.063Z,493.1
2023-10-30T08:23:56.785Z,493.1
2023-10-30T08:24:58.930Z,493.4
2023-10-30T08:26:00.784Z,493.6
2023-10-30T08:27:02.532Z,493.5
2023-10-30T08:28:04.393Z,493.5
2023-10-30T08:29:06.162Z,493.7
2023-10-30T08:30:07.951Z,493.4
2023-10-30T08:31:10.314Z,493.4
2023-10-30T08:32:12.091Z,493.4
2023-10-30T08:33:13.832Z,493.5
2023-10-30T08:34:15.599Z,493.1
2023-10-30T08:35:17.379Z,493.6
2023-10-30T08:36:19.406Z,493.1
2023-10-30T08:37:21.144Z,493.3
2023-10-30T08:38:22.908Z,492.9
2023-10-30T08:39:24.998Z,493.1
2023-10-30T08:40:26.757Z,492.7
2023-10-30T08:41:28.529Z,492.8
2023-10-30T08:42:30.496Z,492.7
2023-10-30T08:43:32.199Z,493
2023-10-30T08:44:33.903Z,493.1
2023-10-30T08:45:35.851Z,493.1
2023-10-30T08:46:38.062Z,493
2023-10-30T08:47:40.585Z,493.3
2023-10-30T08:48:42.984Z,493
2023-10-30T08:49:45.007Z,493.6
2023-10-30T08:50:46.727Z,493.5
2023-10-30T08:52:05.633Z,493.5
2023-10-30T08:53:07.479Z,493.4
2023-10-30T08:54:09.211Z,493.6
2023-10-30T08:55:10.965Z,493.8
2023-10-30T08:56:12.665Z,493.9
2023-10-30T08:57:18.571Z,493.8
2023-10-30T08:58:20.568Z,493.8
2023-10-30T08:59:22.313Z,494
2023-10-30T09:00:24.335Z,494.2
2023-10-30T09:01:26.046Z,493.9
2023-10-30T09:02:27.851Z,494.1
2023-10-30T09:03:30.309Z,494.1
2023-10-30T09:04:34.690Z,494.4
2023-10-30T09:05:44.124Z,494.2
2023-10-30T09:06:56.996Z,494.2
2023-10-30T09:08:07.871Z,494.5
2023-10-30T09:09:12.708Z,494.8
2023-10-30T09:10:17.974Z,494.9
2023-10-30T09:11:30.960Z,495.1
2023-10-30T09:12:35.172Z,495.4
2023-10-30T09:13:41.836Z,495.2
2023-10-30T09:14:44.718Z,495.4
2023-10-30T09:15:56.864Z,495.5
2023-10-30T09:17:01.900Z,495.6
2023-10-30T09:19:39.874Z,496.1
2023-10-30T09:21:12.941Z,495.8
2023-10-30T09:22:23.206Z,496.1
2023-10-30T09:23:41.192Z,496.4
2023-10-30T09:24:47.072Z,496.3
2023-10-30T09:25:51.953Z,496.4
2023-10-30T09:26:53.713Z,496.6
2023-10-30T09:28:18.616Z,496.6
2023-10-30T09:29:35.617Z,496.7
2023-10-30T09:30:40.294Z,496.8
2023-10-30T09:31:42.885Z,497
2023-10-30T09:32:45.009Z,497.2
2023-10-30T09:33:47.327Z,497.4
2023-10-30T09:34:49.401Z,497.2
2023-10-30T09:35:54.240Z,497.6
2023-10-30T09:37:06.380Z,497.6
2023-10-30T09:38:12.903Z,497.6
2023-10-30T09:39:14.631Z,497.7
2023-10-30T09:40:16.390Z,498
2023-10-30T09:41:28.981Z,498
2023-10-30T09:42:39.488Z,498.6
2023-10-30T09:43:50.993Z,498.6
2023-10-30T09:44:57.482Z,498.6
2023-10-30T09:46:07.343Z,499.1
2023-10-30T09:47:28.776Z,498.9
2023-10-30T09:48:37.010Z,499
2023-10-30T09:49:39.202Z,499.2
2023-10-30T09:50:41.098Z,499.3
2023-10-30T09:51:46.147Z,499.5
2023-10-30T09:52:55.907Z,499.5
2023-10-30T09:53:57.725Z,500
2023-10-30T09:55:01.491Z,500.3
2023-10-30T09:56:03.274Z,500.2
2023-10-30T09:57:05.079Z,500.2
2023-10-30T09:58:06.809Z,500.6
2023-10-30T09:59:08.533Z,500.7
2023-10-30T10:00:10.244Z,500.8
2023-10-30T10:01:12.613Z,501.5
2023-10-30T10:02:14.674Z,501.1
2023-10-30T10:03:17.120Z,501.6
2023-10-30T10:04:19.837Z,501.4
2023-10-30T10:05:21.773Z,501.7
2023-10-30T10:06:23.863Z,501.6
2023-10-30T10:07:28.604Z,502
2023-10-30T10:08:30.441Z,501.7
2023-10-30T10:09:38.819Z,502
2023-10-30T10:10:57.796Z,502.1
2023-10-30T10:12:09.257Z,502.1
2023-10-30T10:14:05.082Z,502.5
2023-10-30T10:15:27.613Z,502.6
2023-10-30T10:17:23.602Z,502.8
2023-10-30T10:18:56.352Z,503.5
2023-10-30T10:20:43.525Z,503.6
2023-10-30T10:22:08.264Z,503.6
2023-10-30T10:23:23.278Z,503.7
2023-10-30T10:24:35.303Z,504.2
2023-10-30T10:26:03.192Z,504.2
2023-10-30T10:27:05.794Z,504.1
2023-10-30T10:28:26.190Z,504.4
2023-10-30T10:29:33.362Z,504.7
2023-10-30T10:30:41.016Z,504.8
2023-10-30T10:31:45.458Z,505.1
2023-10-30T10:32:48.454Z,505.1
2023-10-30T10:33:51.285Z,505.1
2023-10-30T10:34:59.679Z,505.2
2023-10-30T10:36:03.663Z,505.5
2023-10-30T10:37:25.768Z,505.2
2023-10-30T10:38:27.512Z,505.8
2023-10-30T10:39:33.243Z,505.9
2023-10-30T10:40:42.748Z,505.9
2023-10-30T10:41:49.782Z,506
2023-10-30T10:42:55.834Z,506.2
2023-10-30T10:43:57.594Z,506
2023-10-30T10:44:59.771Z,506.4
2023-10-30T10:46:02.163Z,506.2
2023-10-30T10:47:03.909Z,506.5
2023-10-30T10:48:05.621Z,506.5
2023-10-30T10:49:07.329Z,506.4
2023-10-30T10:50:09.048Z,506.5
2023-10-30T10:51:10.834Z,506.4
2023-10-30T10:52:12.549Z,506.6
2023-10-30T10:53:14.295Z,506.7
2023-10-30T10:54:16.016Z,506.9
2023-10-30T10:55:17.757Z,507
2023-10-30T10:56:19.661Z,507.4
2023-10-30T10:57:21.436Z,507.3
2023-10-30T10:58:27.451Z,507.5
2023-10-30T10:59:29.966Z,507.6
2023-10-30T11:00:32.066Z,507.5
2023-10-30T11:01:34.454Z,507.9
2023-10-30T11:02:36.473Z,507.9
2023-10-30T11:03:39.762Z,507.9
2023-10-30T11:04:42.297Z,508.4
2023-10-30T11:05:44.158Z,508.4
2023-10-30T11:06:46.247Z,508.8
2023-10-30T11:07:48.040Z,508.4
2023-10-30T11:08:49.796Z,508.5
2023-10-30T11:09:53.381Z,508.8
2023-10-30T11:10:55.604Z,508.9
2023-10-30T11:11:57.377Z,508.8
2023-10-30T11:12:59.599Z,509.2
2023-10-30T11:14:01.443Z,509.1
2023-10-30T11:15:03.297Z,509.7
2023-10-30T11:16:05.967Z,509.8
2023-10-30T11:17:07.810Z,510
2023-10-30T11:18:09.876Z,510
2023-10-30T11:19:11.689Z,510
2023-10-30T11:20:13.406Z,510.4
2023-10-30T11:21:15.202Z,510.4
2023-10-30T11:22:16.939Z,510.4
2023-10-30T11:23:18.693Z,510.4
2023-10-30T11:24:20.421Z,510.4
2023-10-30T11:25:25.006Z,510.6
2023-10-30T11:26:26.750Z,511
2023-10-30T11:27:29.098Z,511.1
2023-10-30T11:28:30.915Z,511
2023-10-30T11:29:32.658Z,511.4
2023-10-30T11:30:34.629Z,511.5
2023-10-30T11:31:36.697Z,511.7
2023-10-30T11:32:38.559Z,512
2023-10-30T11:33:40.627Z,512.3
2023-10-30T11:34:42.346Z,512.1
2023-10-30T11:35:44.096Z,512.7
2023-10-30T11:36:45.977Z,512.9
2023-10-30T11:37:47.758Z,512.6
2023-10-30T11:38:49.479Z,512.9
2023-10-30T11:39:51.494Z,512.9
2023-10-30T11:40:53.254Z,512.7
2023-10-30T11:41:55.037Z,512.8
2023-10-30T11:42:57.136Z,512.9
2023-10-30T11:43:58.914Z,512.9
2023-10-30T11:45:00.673Z,513.1
2023-10-30T11:46:03.166Z,513.3
2023-10-30T11:47:05.027Z,513.2
2023-10-30T11:48:07.658Z,513.7
2023-10-30T11:49:09.703Z,513.5
2023-10-30T11:50:11.415Z,513.6
2023-10-30T11:51:17.083Z,513.6
2023-10-30T11:52:18.785Z,513.8
2023-10-30T11:53:20.581Z,513.7
2023-10-30T11:54:22.504Z,514.1
2023-10-30T11:55:24.268Z,514.2
2023-10-30T11:56:26.005Z,514.3
2023-10-30T11:57:27.788Z,514.2
2023-10-30T11:58:29.520Z,514.6
2023-10-30T11:59:31.299Z,514.5
2023-10-30T12:00:33.094Z,514.7
2023-10-30T12:01:35.353Z,514.8
2023-10-30T12:02:37.207Z,514.5
2023-10-30T12:03:39.499Z,514.9
2023-10-30T12:04:41.961Z,515.3
2023-10-30T12:05:43.827Z,515.3
2023-10-30T12:06:45.681Z,515.3
2023-10-30T12:07:47.413Z,515.2
2023-10-30T12:08:49.152Z,515.4
2023-10-30T12:09:51.067Z,515.6
2023-10-30T12:10:52.828Z,515.2
2023-10-30T12:11:54.541Z,515.6
2023-10-30T12:12:56.759Z,515.4
2023-10-30T12:13:58.460Z,515.7
2023-10-30T12:15:00.415Z,515.9
2023-10-30T12:16:02.494Z,516
2023-10-30T12:17:04.355Z,515.8
2023-10-30T12:18:06.319Z,515.6
2023-10-30T12:19:08.111Z,515.6
2023-10-30T12:20:09.813Z,515.7
2023-10-30T12:21:11.582Z,516
2023-10-30T12:22:13.271Z,516.3
2023-10-30T12:23:16.361Z,516.4
2023-10-30T12:24:21.887Z,516.3
2023-10-30T12:25:23.609Z,516.8
2023-10-30T12:26:25.340Z,516.8
2023-10-30T12:27:27.319Z,516.7
2023-10-30T12:28:29.117Z,517.1
2023-10-30T12:29:30.832Z,516.7
2023-10-30T12:30:33.096Z,516.7
2023-10-30T12:31:35.186Z,516.9
2023-10-30T12:32:37.039Z,516.6
2023-10-30T12:33:38.967Z,516.9
2023-10-30T12:34:40.782Z,517.1
2023-10-30T12:35:42.510Z,517.6
2023-10-30T12:36:44.654Z,517.3
2023-10-30T12:37:46.465Z,517.5
2023-10-30T12:38:48.170Z,517.8
2023-10-30T12:39:50.080Z,517.9
2023-10-30T12:40:51.855Z,517.9
2023-10-30T12:41:53.848Z,518.2
2023-10-30T12:42:55.949Z,518
2023-10-30T12:43:57.663Z,518.2
2023-10-30T12:44:59.381Z,518.1
2023-10-30T12:46:01.657Z,518.1
2023-10-30T12:47:03.603Z,518.4
2023-10-30T12:48:05.722Z,518.2
2023-10-30T12:49:07.710Z,518.5
2023-10-30T12:50:09.497Z,518.7
2023-10-30T12:51:11.514Z,518.6
2023-10-30T12:52:13.370Z,518.7
2023-10-30T12:53:15.060Z,518.8
2023-10-30T12:54:16.789Z,518.9
2023-10-30T12:55:18.594Z,519
2023-10-30T12:56:20.304Z,519.4
2023-10-30T12:57:22.080Z,519.6
2023-10-30T12:58:27.788Z,519.5
2023-10-30T12:59:29.896Z,519.9
2023-10-30T13:00:31.815Z,519.6
2023-10-30T13:01:59.398Z,519.7
2023-10-30T13:03:01.758Z,520
2023-10-30T13:04:04.313Z,519.8
2023-10-30T13:05:06.835Z,520
2023-10-30T13:06:08.817Z,520
2023-10-30T13:07:10.581Z,520.3
2023-10-30T13:08:12.312Z,519.9
2023-10-30T13:09:14.027Z,520.3
2023-10-30T13:10:15.792Z,520.2
2023-10-30T13:11:17.650Z,520.6
2023-10-30T13:12:19.414Z,520.3
2023-10-30T13:13:21.180Z,520.4
2023-10-30T13:14:22.931Z,520.6
2023-10-30T13:15:24.737Z,520.6
2023-10-30T13:16:26.711Z,520.8
2023-10-30T13:17:28.989Z,520.7
2023-10-30T13:18:30.940Z,521.1
2023-10-30T13:19:32.686Z,520.8
2023-10-30T13:20:34.382Z,520.7
2023-10-30T13:21:36.196Z,521
2023-10-30T13:22:37.940Z,520.7
2023-10-30T13:23:39.641Z,520.6
2023-10-30T13:24:41.466Z,520.8
2023-10-30T13:25:43.193Z,520.5
2023-10-30T13:26:44.914Z,520.5
2023-10-30T13:27:46.861Z,520.5
2023-10-30T13:28:48.622Z,520.5
2023-10-30T13:29:50.334Z,520.4
2023-10-30T13:30:52.544Z,520.6
2023-10-30T13:31:54.290Z,520.8
2023-10-30T13:32:56.709Z,520.4
2023-10-30T13:33:59.144Z,520.5
2023-10-30T13:35:00.993Z,520.6
2023-10-30T13:36:05.012Z,520.9
2023-10-30T13:37:06.808Z,520.8